Time;durP1;ratioP1;P1;durP2;ratioP2;P2;SDS_P1;SDS_P2;PMS_P1;PMS_P2;Temp;Humidity;BMP_temperature;BMP_pressure;BME280_temperature;BME280_humidity;BME280_pressure;Samples;Min_cycle;Max_cycle;Signal;HPM_P1;HPM_P2
2023/08/15 07:37:18;;;;;;;0.25;0.25;;;;;;;;;;5110081;27;20392;-78
2023/08/15 07:39:44;;;;;;;0.22;0.22;;;;;;;;;;5110657;28;20024;-77
2023/08/15 07:42:10;;;;;;;0.20;0.20;;;;;;;;;;5109473;28;20435;-78
2023/08/15 07:44:36;;;;;;;0.63;0.63;;;;;;;;;;5109308;28;20054;-79
2023/08/15 07:47:02;;;;;;;0.20;0.20;;;;;;;;;;5110222;28;20471;-78
2023/08/15 07:49:30;;;;;;;0.40;0.40;;;;;;;;;;5110046;28;20026;-79
2023/08/15 07:51:56;;;;;;;0.28;0.28;;;;;;;;;;5110151;28;20024;-78
2023/08/15 07:54:22;;;;;;;0.10;0.10;;;;;;;;;;5109959;28;20442;-78
2023/08/15 07:56:48;;;;;;;0.10;0.10;;;;;;;;;;5109245;28;20032;-78
2023/08/15 07:59:14;;;;;;;0.10;0.10;;;;;;;;;;5110122;28;20066;-77
2023/08/15 08:01:40;;;;;;;0.00;0.00;;;;;;;;;;5109747;28;20027;-78
2023/08/15 08:04:06;;;;;;;0.10;0.10;;;;;;;;;;5109632;28;20076;-78
2023/08/15 08:06:32;;;;;;;0.43;0.43;;;;;;;;;;5109712;28;20430;-77
2023/08/15 08:08:59;;;;;;;0.10;0.10;;;;;;;;;;5109910;28;20023;-78
2023/08/15 08:11:25;;;;;;;0.13;0.13;;;;;;;;;;5109070;28;20028;-77
2023/08/15 08:13:51;;;;;;;0.15;0.15;;;;;;;;;;5109909;28;20031;-77
2023/08/15 08:16:17;;;;;;;0.20;0.20;;;;;;;;;;5109135;28;20028;-78
2023/08/15 08:18:43;;;;;;;0.10;0.10;;;;;;;;;;5108399;28;20024;-78
2023/08/15 08:21:09;;;;;;;0.20;0.20;;;;;;;;;;5107479;28;20035;-79
2023/08/15 08:23:35;;;;;;;0.20;0.20;;;;;;;;;;5109276;28;20036;-81
2023/08/15 08:26:01;;;;;;;0.22;0.22;;;;;;;;;;5109132;28;20028;-78
2023/08/15 08:28:29;;;;;;;0.47;0.25;;;;;;;;;;5108896;28;20388;-78
2023/08/15 08:30:55;;;;;;;0.00;0.00;;;;;;;;;;5108360;28;20101;-77
2023/08/15 08:33:21;;;;;;;0.90;0.20;;;;;;;;;;5108967;28;20480;-77
2023/08/15 08:35:47;;;;;;;0.30;0.30;;;;;;;;;;5108462;28;20093;-78
2023/08/15 08:38:13;;;;;;;0.10;0.10;;;;;;;;;;5108675;28;20081;-77
2023/08/15 08:40:41;;;;;;;0.20;0.20;;;;;;;;;;5108606;28;20443;-77
2023/08/15 08:43:09;;;;;;;0.60;0.20;;;;;;;;;;5097921;28;20051;-78
2023/08/15 08:45:42;;;;;;;0.17;0.17;;;;;;;;;;5108837;28;20059;-78
2023/08/15 08:48:09;;;;;;;0.00;0.00;;;;;;;;;;5097678;28;20057;-78
2023/08/15 08:50:36;;;;;;;0.20;0.20;;;;;;;;;;5094906;28;20028;-78
2023/08/15 08:53:02;;;;;;;0.00;0.00;;;;;;;;;;5095381;28;20028;-78
2023/08/15 08:55:29;;;;;;;0.08;0.08;;;;;;;;;;5095122;28;20119;-80
2023/08/15 09:20:18;;;;;;;1.67;0.90;;;;;;;;;;5110387;27;21032;-85
2023/08/15 09:22:47;;;;;;;0.40;0.40;;;;;;;;;;5110519;28;20059;-85
2023/08/15 09:25:17;;;;;;;0.10;0.10;;;;;;;;;;5110630;27;20070;-85
2023/08/15 09:27:44;;;;;;;0.00;0.00;;;;;;;;;;5119388;28;20035;-86
2023/08/15 09:30:14;;;;;;;0.20;0.20;;;;;;;;;;5128715;27;20023;-85
2023/08/15 09:32:40;;;;;;;0.08;0.08;;;;;;;;;;5091938;28;20401;-81
2023/08/15 09:35:08;;;;;;;0.20;0.20;;;;;;;;;;5110082;28;20102;-80
2023/08/15 09:37:34;;;;;;;0.00;0.00;;;;;;;;;;5112204;28;20129;-84
2023/08/15 09:40:01;;;;;;;0.20;0.20;;;;;;;;;;5124121;27;21348;-84
2023/08/15 09:42:28;;;;;;;0.10;0.10;;;;;;;;;;5109146;28;20031;-81
2023/08/15 09:44:55;;;;;;;0.13;0.13;;;;;;;;;;5108646;28;20038;-81
2023/08/15 09:47:21;;;;;;;0.17;0.17;;;;;;;;;;5109938;28;20435;-81
2023/08/15 09:49:52;;;;;;;0.00;0.00;;;;;;;;;;5109600;28;20024;-81
2023/08/15 09:52:19;;;;;;;0.10;0.10;;;;;;;;;;5109514;28;20040;-81
2023/08/15 09:54:46;;;;;;;0.22;0.10;;;;;;;;;;5109336;28;20606;-81
2023/08/15 09:57:12;;;;;;;0.32;0.25;;;;;;;;;;5091605;28;20177;-81
2023/08/15 09:59:38;;;;;;;0.10;0.10;;;;;;;;;;5109311;28;20036;-81
2023/08/15 10:02:06;;;;;;;1.25;0.10;;;;;;;;;;5107926;28;20031;-81
2023/08/15 10:04:32;;;;;;;0.20;0.20;;;;;;;;;;5108323;28;20365;-81
2023/08/15 10:06:58;;;;;;;0.10;0.10;;;;;;;;;;5109580;28;20105;-81
2023/08/15 10:09:26;;;;;;;0.35;0.30;;;;;;;;;;5108777;28;20023;-81
2023/08/15 10:11:52;;;;;;;0.20;0.20;;;;;;;;;;5108893;28;20020;-81
2023/08/15 10:14:19;;;;;;;0.10;0.10;;;;;;;;;;5108816;28;20024;-81
2023/08/15 10:16:46;;;;;;;2.05;0.70;;;;;;;;;;5109520;28;20028;-81
2023/08/15 10:19:18;;;;;;;0.70;0.70;;;;;;;;;;5109168;28;20043;-81
2023/08/15 10:21:48;;;;;;;0.73;0.57;;;;;;;;;;5109303;28;20058;-81
2023/08/15 10:24:14;;;;;;;0.20;0.20;;;;;;;;;;5109142;28;20027;-81
2023/08/15 10:26:40;;;;;;;0.10;0.10;;;;;;;;;;5109204;28;20472;-81
2023/08/15 10:29:06;;;;;;;0.17;0.17;;;;;;;;;;5108878;28;20024;-81
2023/08/15 10:31:36;;;;;;;0.43;0.43;;;;;;;;;;5095723;28;20024;-81
2023/08/15 10:34:07;;;;;;;0.00;0.00;;;;;;;;;;5095482;28;20511;-81
2023/08/15 10:36:33;;;;;;;0.45;0.40;;;;;;;;;;5095507;28;20400;-81
2023/08/15 10:39:04;;;;;;;0.22;0.22;;;;;;;;;;5095511;28;20036;-81
2023/08/15 10:41:32;;;;;;;0.22;0.22;;;;;;;;;;5095360;28;20511;-81
2023/08/15 10:44:02;;;;;;;0.20;0.20;;;;;;;;;;5094960;28;20036;-81
2023/08/15 10:46:29;;;;;;;0.20;0.20;;;;;;;;;;5095299;28;20084;-81
2023/08/15 10:48:56;;;;;;;0.43;0.32;;;;;;;;;;5095341;28;20077;-81
2023/08/15 10:51:23;;;;;;;0.50;0.50;;;;;;;;;;5095267;28;20366;-81
2023/08/15 10:53:50;;;;;;;0.30;0.28;;;;;;;;;;5095078;28;20020;-81
2023/08/15 10:56:20;;;;;;;0.50;0.43;;;;;;;;;;5095254;28;20016;-81
2023/08/15 10:58:47;;;;;;;0.00;0.00;;;;;;;;;;5095079;28;20043;-81
2023/08/15 11:01:31;;;;;;;1.13;0.73;;;;;;;;;;5076930;28;20476;-81
2023/08/15 11:03:57;;;;;;;0.20;0.20;;;;;;;;;;5094991;28;20111;-81
2023/08/15 11:06:24;;;;;;;0.10;0.10;;;;;;;;;;5094878;28;20032;-81
2023/08/15 11:08:51;;;;;;;0.10;0.10;;;;;;;;;;5094842;28;20028;-81
2023/08/15 11:11:17;;;;;;;0.10;0.10;;;;;;;;;;5094456;28;20024;-81
2023/08/15 11:13:47;;;;;;;0.40;0.40;;;;;;;;;;5094753;28;20024;-81
2023/08/15 11:16:17;;;;;;;0.03;0.03;;;;;;;;;;5094725;28;20457;-81
2023/08/15 11:18:43;;;;;;;0.30;0.30;;;;;;;;;;5094461;28;20048;-82
2023/08/15 11:21:11;;;;;;;0.17;0.17;;;;;;;;;;5094637;28;20031;-81
2023/08/15 11:23:37;;;;;;;0.25;0.25;;;;;;;;;;5094481;28;20046;-81
2023/08/15 11:26:04;;;;;;;0.63;0.50;;;;;;;;;;5094234;28;20248;-81
2023/08/15 11:28:30;;;;;;;0.10;0.10;;;;;;;;;;5094469;28;20398;-81
2023/08/15 11:30:58;;;;;;;0.03;0.03;;;;;;;;;;5094541;28;20028;-81
2023/08/15 11:33:24;;;;;;;0.10;0.10;;;;;;;;;;5094290;28;20035;-81
2023/08/15 11:35:50;;;;;;;0.30;0.30;;;;;;;;;;5094259;28;20507;-81
2023/08/15 11:38:20;;;;;;;0.38;0.22;;;;;;;;;;5094396;28;20024;-81
2023/08/15 11:40:46;;;;;;;0.60;0.32;;;;;;;;;;5093841;28;20170;-81
2023/08/15 11:43:12;;;;;;;0.28;0.28;;;;;;;;;;5093116;28;20017;-82
2023/08/15 11:45:41;;;;;;;0.10;0.10;;;;;;;;;;5094326;28;20039;-81
2023/08/15 11:48:08;;;;;;;0.15;0.15;;;;;;;;;;5094162;28;20020;-81
2023/08/15 11:50:35;;;;;;;0.13;0.10;;;;;;;;;;5094106;28;20056;-82
2023/08/15 11:53:07;;;;;;;0.20;0.13;;;;;;;;;;5094088;28;20028;-81
2023/08/15 11:55:35;;;;;;;0.28;0.28;;;;;;;;;;5093782;28;20099;-82
2023/08/15 11:58:02;;;;;;;0.10;0.10;;;;;;;;;;5093801;28;20035;-81
2023/08/15 12:00:28;;;;;;;0.10;0.10;;;;;;;;;;5093924;28;20035;-81
2023/08/15 12:02:55;;;;;;;0.00;0.00;;;;;;;;;;5094000;28;20020;-82
2023/08/15 12:05:21;;;;;;;0.32;0.20;;;;;;;;;;5093718;28;20366;-81
2023/08/15 12:07:48;;;;;;;0.20;0.20;;;;;;;;;;5093551;28;20028;-82
2023/08/15 12:10:15;;;;;;;0.00;0.00;;;;;;;;;;5093482;28;20036;-81
2023/08/15 12:12:43;;;;;;;0.10;0.10;;;;;;;;;;5093694;28;20016;-81
2023/08/15 12:15:10;;;;;;;0.10;0.10;;;;;;;;;;5093601;28;20024;-82
2023/08/15 12:17:36;;;;;;;0.30;0.30;;;;;;;;;;5093567;28;20101;-81
2023/08/15 12:20:06;;;;;;;0.10;0.10;;;;;;;;;;5093326;28;20048;-81
2023/08/15 12:22:32;;;;;;;0.20;0.20;;;;;;;;;;5093381;28;20047;-82
2023/08/15 12:24:58;;;;;;;0.20;0.17;;;;;;;;;;5092986;28;20473;-81
2023/08/15 12:27:24;;;;;;;0.10;0.10;;;;;;;;;;5093445;28;20546;-82
2023/08/15 12:29:50;;;;;;;0.10;0.10;;;;;;;;;;5093307;28;20032;-82
2023/08/15 12:32:16;;;;;;;0.03;0.03;;;;;;;;;;5093325;28;20026;-81
2023/08/15 12:34:42;;;;;;;0.10;0.10;;;;;;;;;;5093285;28;20466;-82
2023/08/15 12:37:08;;;;;;;0.10;0.10;;;;;;;;;;5093196;28;20028;-82
2023/08/15 12:39:34;;;;;;;0.38;0.38;;;;;;;;;;5093018;28;20048;-81
2023/08/15 12:42:01;;;;;;;0.25;0.20;;;;;;;;;;5093185;28;20046;-82
2023/08/15 12:44:28;;;;;;;0.70;0.40;;;;;;;;;;5093005;28;20103;-81
2023/08/15 12:46:54;;;;;;;0.20;0.20;;;;;;;;;;5093148;28;20051;-82
2023/08/15 12:49:20;;;;;;;0.28;0.28;;;;;;;;;;5093067;28;20020;-82
2023/08/15 12:51:46;;;;;;;0.10;0.10;;;;;;;;;;5093061;28;20070;-81
2023/08/15 12:54:12;;;;;;;0.10;0.10;;;;;;;;;;5092402;28;20020;-81
2023/08/15 12:56:38;;;;;;;0.25;0.25;;;;;;;;;;5092927;28;20483;-81
2023/08/15 12:59:04;;;;;;;0.10;0.10;;;;;;;;;;5092767;28;20065;-81
2023/08/15 13:01:30;;;;;;;0.30;0.30;;;;;;;;;;5092977;28;20024;-82
2023/08/15 13:03:56;;;;;;;0.30;0.30;;;;;;;;;;5092867;28;20035;-81
2023/08/15 13:06:22;;;;;;;0.40;0.25;;;;;;;;;;5092668;28;20039;-81
2023/08/15 13:08:48;;;;;;;0.63;0.30;;;;;;;;;;5092424;28;20012;-81
2023/08/15 13:11:15;;;;;;;0.35;0.35;;;;;;;;;;5092822;28;20051;-81
2023/08/15 13:13:41;;;;;;;0.10;0.10;;;;;;;;;;5092707;28;20024;-81
2023/08/15 13:16:11;;;;;;;0.32;0.32;;;;;;;;;;5092784;28;20400;-82
2023/08/15 13:18:37;;;;;;;0.80;0.10;;;;;;;;;;5092392;28;20405;-82
2023/08/15 13:21:03;;;;;;;0.45;0.45;;;;;;;;;;5092577;28;20032;-81
2023/08/15 13:23:29;;;;;;;0.17;0.17;;;;;;;;;;5092190;28;20030;-81
2023/08/15 13:25:56;;;;;;;0.57;0.57;;;;;;;;;;5092654;28;20473;-81
2023/08/15 13:28:22;;;;;;;0.32;0.32;;;;;;;;;;5092592;28;20061;-81
2023/08/15 13:30:48;;;;;;;0.30;0.30;;;;;;;;;;5092618;28;20024;-81
2023/08/15 13:33:14;;;;;;;0.30;0.30;;;;;;;;;;5092396;28;20031;-81
2023/08/15 13:35:40;;;;;;;5.57;1.00;;;;;;;;;;5092566;28;20024;-81
2023/08/15 13:38:06;;;;;;;0.60;0.20;;;;;;;;;;5092116;28;20221;-81
2023/08/15 13:40:32;;;;;;;0.50;0.50;;;;;;;;;;5092516;28;20100;-81
2023/08/15 13:42:59;;;;;;;0.10;0.10;;;;;;;;;;5092519;28;20488;-81
2023/08/15 13:45:25;;;;;;;0.88;0.47;;;;;;;;;;5092390;28;20052;-81
2023/08/15 13:47:51;;;;;;;0.28;0.28;;;;;;;;;;5092460;28;20028;-81
2023/08/15 13:50:17;;;;;;;0.00;0.00;;;;;;;;;;5092504;28;20430;-81
2023/08/15 13:52:43;;;;;;;0.65;0.30;;;;;;;;;;5092076;28;20028;-81
2023/08/15 13:55:12;;;;;;;0.30;0.30;;;;;;;;;;5092345;28;20020;-81
2023/08/15 13:57:38;;;;;;;0.43;0.30;;;;;;;;;;5092110;28;20519;-81
2023/08/15 14:00:06;;;;;;;0.40;0.25;;;;;;;;;;5092278;28;20508;-81
2023/08/15 14:02:32;;;;;;;0.75;0.30;;;;;;;;;;5092251;28;20025;-81
2023/08/15 14:04:58;;;;;;;0.28;0.28;;;;;;;;;;5092372;28;20034;-82
2023/08/15 14:07:24;;;;;;;0.35;0.35;;;;;;;;;;5096032;28;20093;-81
2023/08/15 14:09:50;;;;;;;0.22;0.22;;;;;;;;;;5095920;28;20024;-81
2023/08/15 14:12:16;;;;;;;0.13;0.13;;;;;;;;;;5096245;28;20066;-81
2023/08/15 14:14:42;;;;;;;0.30;0.30;;;;;;;;;;5095902;28;20028;-81
2023/08/15 14:17:08;;;;;;;0.88;0.40;;;;;;;;;;5095746;28;20477;-81
2023/08/15 14:19:34;;;;;;;0.45;0.45;;;;;;;;;;5095267;28;20515;-81
2023/08/15 14:22:00;;;;;;;0.32;0.20;;;;;;;;;;5095639;28;20109;-81
2023/08/15 14:24:26;;;;;;;0.15;0.15;;;;;;;;;;5095679;28;20150;-81
2023/08/15 14:26:52;;;;;;;0.35;0.35;;;;;;;;;;5095831;28;20032;-81
2023/08/15 14:29:18;;;;;;;0.10;0.10;;;;;;;;;;5095705;28;20027;-81
2023/08/15 14:31:44;;;;;;;0.40;0.35;;;;;;;;;;5095736;28;20016;-81
2023/08/15 14:34:10;;;;;;;0.30;0.30;;;;;;;;;;5095127;28;20491;-81
2023/08/15 14:36:36;;;;;;;0.30;0.30;;;;;;;;;;5095544;28;20061;-81
2023/08/15 14:39:03;;;;;;;0.22;0.22;;;;;;;;;;5095590;28;20040;-81
2023/08/15 14:41:31;;;;;;;0.20;0.20;;;;;;;;;;5095468;28;20051;-81
2023/08/15 14:43:57;;;;;;;1.38;0.82;;;;;;;;;;5095415;28;20436;-81
2023/08/15 14:46:23;;;;;;;0.30;0.30;;;;;;;;;;5095400;28;20024;-81
2023/08/15 14:48:49;;;;;;;0.40;0.40;;;;;;;;;;5076930;28;20437;-82
2023/08/15 14:51:15;;;;;;;0.00;0.00;;;;;;;;;;5095334;28;20103;-81
2023/08/15 14:53:41;;;;;;;0.25;0.25;;;;;;;;;;5095239;28;20102;-81
2023/08/15 14:56:07;;;;;;;0.90;0.30;;;;;;;;;;5095149;28;20365;-81
2023/08/15 14:58:33;;;;;;;0.50;0.50;;;;;;;;;;5095060;28;20027;-81
2023/08/15 15:00:59;;;;;;;0.10;0.10;;;;;;;;;;5095145;28;20495;-81
2023/08/15 15:03:25;;;;;;;0.55;0.30;;;;;;;;;;5094673;28;20028;-81
2023/08/15 15:05:51;;;;;;;0.20;0.20;;;;;;;;;;5094851;28;20025;-81
2023/08/15 15:08:17;;;;;;;0.10;0.10;;;;;;;;;;5094977;28;20020;-81
2023/08/15 15:10:43;;;;;;;0.35;0.15;;;;;;;;;;5094894;28;20059;-81
2023/08/15 15:13:09;;;;;;;0.22;0.22;;;;;;;;;;5094772;28;20482;-81
2023/08/15 15:15:35;;;;;;;0.22;0.22;;;;;;;;;;5094892;28;20034;-81
2023/08/15 15:18:01;;;;;;;0.40;0.40;;;;;;;;;;5094031;28;20031;-81
2023/08/15 15:20:27;;;;;;;0.00;0.00;;;;;;;;;;5094801;28;20107;-81
2023/08/15 15:22:53;;;;;;;0.60;0.60;;;;;;;;;;5094906;28;20564;-81
2023/08/15 15:25:19;;;;;;;0.20;0.20;;;;;;;;;;5094603;28;20067;-82
2023/08/15 15:27:45;;;;;;;0.20;0.20;;;;;;;;;;5094627;28;20036;-81
2023/08/15 15:30:11;;;;;;;0.17;0.13;;;;;;;;;;5094563;28;20024;-81
2023/08/15 15:32:37;;;;;;;0.38;0.38;;;;;;;;;;5094133;28;20507;-81
2023/08/15 15:35:03;;;;;;;0.28;0.28;;;;;;;;;;5094385;28;20024;-81
2023/08/15 15:37:29;;;;;;;0.22;0.22;;;;;;;;;;5094382;28;20081;-82
2023/08/15 15:39:55;;;;;;;0.45;0.45;;;;;;;;;;5094318;28;20040;-81
2023/08/15 15:42:21;;;;;;;0.15;0.15;;;;;;;;;;5094371;28;20020;-81
2023/08/15 15:44:47;;;;;;;0.13;0.13;;;;;;;;;;5094141;28;20032;-81
2023/08/15 15:47:13;;;;;;;0.17;0.17;;;;;;;;;;5093663;28;20273;-81
2023/08/15 15:49:40;;;;;;;0.00;0.00;;;;;;;;;;5094142;28;20024;-82
2023/08/15 15:52:06;;;;;;;0.17;0.17;;;;;;;;;;5094071;28;20361;-82
2023/08/15 15:54:32;;;;;;;0.13;0.13;;;;;;;;;;5094043;28;20543;-81
2023/08/15 15:56:58;;;;;;;0.20;0.20;;;;;;;;;;5094106;28;20016;-81
2023/08/15 15:59:24;;;;;;;0.10;0.10;;;;;;;;;;5093863;28;20035;-81
2023/08/15 16:01:50;;;;;;;0.13;0.13;;;;;;;;;;5093611;28;20070;-82
2023/08/15 16:04:16;;;;;;;0.47;0.47;;;;;;;;;;5093782;28;20035;-81
2023/08/15 16:06:42;;;;;;;0.40;0.35;;;;;;;;;;5093699;28;20024;-82
2023/08/15 16:09:08;;;;;;;0.52;0.30;;;;;;;;;;5093744;28;20027;-81
2023/08/15 16:11:34;;;;;;;0.20;0.20;;;;;;;;;;5093800;28;20032;-81
2023/08/15 16:14:00;;;;;;;0.45;0.45;;;;;;;;;;5093712;28;20099;-82
2023/08/15 16:16:26;;;;;;;0.40;0.40;;;;;;;;;;5093296;28;20052;-81
2023/08/15 16:18:52;;;;;;;0.10;0.10;;;;;;;;;;5093417;28;20091;-81
2023/08/15 16:21:18;;;;;;;1.55;0.70;;;;;;;;;;5075382;28;20103;-81
2023/08/15 16:23:44;;;;;;;0.47;0.47;;;;;;;;;;5093295;28;20038;-81
2023/08/15 16:26:10;;;;;;;0.63;0.32;;;;;;;;;;5093494;28;20027;-81
2023/08/15 16:28:36;;;;;;;0.25;0.25;;;;;;;;;;5092887;28;20106;-81
2023/08/15 16:31:02;;;;;;;0.22;0.22;;;;;;;;;;5093169;28;20103;-81
2023/08/15 16:33:29;;;;;;;0.30;0.30;;;;;;;;;;5093304;28;20039;-81
2023/08/15 16:35:55;;;;;;;0.17;0.17;;;;;;;;;;5093144;28;20107;-81
2023/08/15 16:38:21;;;;;;;0.25;0.25;;;;;;;;;;5093251;28;20111;-81
2023/08/15 16:40:47;;;;;;;0.10;0.10;;;;;;;;;;5093227;28;20174;-81
2023/08/15 16:43:14;;;;;;;0.28;0.28;;;;;;;;;;5093013;28;20077;-81
2023/08/15 16:45:40;;;;;;;0.10;0.10;;;;;;;;;;5092790;28;20024;-81
2023/08/15 16:48:07;;;;;;;0.15;0.15;;;;;;;;;;5074990;28;20028;-81
2023/08/15 16:50:34;;;;;;;0.08;0.08;;;;;;;;;;5093173;28;20099;-81
2023/08/15 16:53:00;;;;;;;0.40;0.40;;;;;;;;;;5092843;28;20526;-81
2023/08/15 16:55:26;;;;;;;1.98;0.82;;;;;;;;;;5092966;28;20023;-81
2023/08/15 16:57:52;;;;;;;0.40;0.40;;;;;;;;;;5092965;28;20028;-82
2023/08/15 17:00:19;;;;;;;0.13;0.13;;;;;;;;;;5092535;28;20039;-81
2023/08/15 17:02:45;;;;;;;0.00;0.00;;;;;;;;;;5092949;28;20023;-81
2023/08/15 17:05:11;;;;;;;0.10;0.10;;;;;;;;;;5092916;28;20099;-82
2023/08/15 17:07:37;;;;;;;0.15;0.15;;;;;;;;;;5092753;28;20035;-81
2023/08/15 17:10:05;;;;;;;0.20;0.20;;;;;;;;;;5092814;28;20039;-81
2023/08/15 17:12:31;;;;;;;0.10;0.10;;;;;;;;;;5092719;28;20035;-81
2023/08/15 17:14:57;;;;;;;0.20;0.20;;;;;;;;;;5092360;28;20473;-81
2023/08/15 17:17:24;;;;;;;0.22;0.20;;;;;;;;;;5092791;28;20062;-81
2023/08/15 17:19:50;;;;;;;0.20;0.20;;;;;;;;;;5092345;28;20089;-81
2023/08/15 17:22:16;;;;;;;0.15;0.15;;;;;;;;;;5092738;28;20103;-81
2023/08/15 17:24:44;;;;;;;0.20;0.20;;;;;;;;;;5092414;28;20400;-81
2023/08/15 17:27:11;;;;;;;1.65;0.80;;;;;;;;;;5092580;28;20020;-81
2023/08/15 17:29:37;;;;;;;1.17;0.38;;;;;;;;;;5074584;28;20543;-81
2023/08/15 17:32:06;;;;;;;0.20;0.20;;;;;;;;;;5092733;28;20048;-81
2023/08/15 17:34:36;;;;;;;0.30;0.30;;;;;;;;;;5092421;28;20059;-81
2023/08/15 17:37:02;;;;;;;0.28;0.20;;;;;;;;;;5092643;28;20034;-82
2023/08/15 17:39:28;;;;;;;0.80;0.80;;;;;;;;;;5092523;28;20063;-81
2023/08/15 17:41:58;;;;;;;0.10;0.10;;;;;;;;;;5096286;28;20452;-81
2023/08/15 17:44:24;;;;;;;0.10;0.10;;;;;;;;;;5096143;28;20036;-82
2023/08/15 17:46:50;;;;;;;0.50;0.50;;;;;;;;;;5096454;28;20560;-81
2023/08/15 17:49:16;;;;;;;0.40;0.40;;;;;;;;;;5096521;28;20028;-81
2023/08/15 17:51:42;;;;;;;0.73;0.73;;;;;;;;;;5096438;28;20050;-81
2023/08/15 17:54:08;;;;;;;0.20;0.20;;;;;;;;;;5096384;28;20040;-82
2023/08/15 17:56:35;;;;;;;0.68;0.50;;;;;;;;;;5096322;28;20118;-81
2023/08/15 17:59:01;;;;;;;0.22;0.22;;;;;;;;;;5095846;28;20036;-81
2023/08/15 18:01:27;;;;;;;0.00;0.00;;;;;;;;;;5078128;28;20504;-81
2023/08/15 18:03:54;;;;;;;0.30;0.30;;;;;;;;;;5096052;28;20492;-81
2023/08/15 18:06:21;;;;;;;0.50;0.50;;;;;;;;;;5095923;28;20504;-81
2023/08/15 18:08:47;;;;;;;0.32;0.25;;;;;;;;;;5096080;28;20024;-81
2023/08/15 18:11:13;;;;;;;0.25;0.22;;;;;;;;;;5096069;28;20066;-81
2023/08/15 18:13:40;;;;;;;0.65;0.30;;;;;;;;;;5095697;28;20028;-82
2023/08/15 18:16:07;;;;;;;0.40;0.20;;;;;;;;;;5096004;28;20433;-81
2023/08/15 18:18:33;;;;;;;0.10;0.10;;;;;;;;;;5095723;28;20081;-81
2023/08/15 18:21:00;;;;;;;0.15;0.15;;;;;;;;;;5096159;28;20023;-81
2023/08/15 18:23:26;;;;;;;0.40;0.40;;;;;;;;;;5095670;28;20024;-81
2023/08/15 18:25:52;;;;;;;0.35;0.10;;;;;;;;;;5095472;28;20472;-81
2023/08/15 18:28:18;;;;;;;0.20;0.20;;;;;;;;;;5095744;28;20467;-81
2023/08/15 18:30:44;;;;;;;0.55;0.50;;;;;;;;;;5095702;28;20534;-81
2023/08/15 18:33:10;;;;;;;0.20;0.20;;;;;;;;;;5095437;28;20411;-81
2023/08/15 18:35:37;;;;;;;0.13;0.13;;;;;;;;;;5095592;28;20031;-81
2023/08/15 18:38:03;;;;;;;8.00;0.80;;;;;;;;;;5095569;28;20032;-81
2023/08/15 18:40:29;;;;;;;0.20;0.20;;;;;;;;;;5095174;28;20378;-81
2023/08/15 18:42:56;;;;;;;0.10;0.10;;;;;;;;;;5095491;28;20053;-81
2023/08/15 18:45:23;;;;;;;0.20;0.20;;;;;;;;;;5095327;28;20511;-82
2023/08/15 18:47:49;;;;;;;0.10;0.10;;;;;;;;;;5095372;28;20028;-81
2023/08/15 18:50:15;;;;;;;0.85;0.38;;;;;;;;;;5095456;28;20031;-81
2023/08/15 18:52:41;;;;;;;1.95;0.63;;;;;;;;;;5094785;28;20027;-81
2023/08/15 18:55:08;;;;;;;2.65;0.85;;;;;;;;;;5094909;28;20028;-82
2023/08/15 18:57:34;;;;;;;0.35;0.35;;;;;;;;;;5095214;28;20028;-81
2023/08/15 19:00:02;;;;;;;0.22;0.22;;;;;;;;;;5095014;28;20504;-82
2023/08/15 19:02:28;;;;;;;0.10;0.10;;;;;;;;;;5095045;28;20016;-82
2023/08/15 19:04:58;;;;;;;0.15;0.15;;;;;;;;;;5095040;28;20396;-82
2023/08/15 19:07:24;;;;;;;0.30;0.28;;;;;;;;;;5094860;28;20709;-81
2023/08/15 19:09:50;;;;;;;0.00;0.00;;;;;;;;;;5094651;28;20111;-81
2023/08/15 19:12:16;;;;;;;0.10;0.10;;;;;;;;;;5095124;28;20102;-81
2023/08/15 19:14:42;;;;;;;0.00;0.00;;;;;;;;;;5094907;28;20468;-81
2023/08/15 19:17:08;;;;;;;0.10;0.10;;;;;;;;;;5094870;28;20028;-82
2023/08/15 19:19:34;;;;;;;0.10;0.10;;;;;;;;;;5094574;28;20493;-82
2023/08/15 19:22:00;;;;;;;0.00;0.00;;;;;;;;;;5094692;28;20039;-82
2023/08/15 19:24:26;;;;;;;0.00;0.00;;;;;;;;;;5094194;28;20388;-81
2023/08/15 19:26:54;;;;;;;0.35;0.20;;;;;;;;;;5094702;28;20477;-82
2023/08/15 19:29:20;;;;;;;0.22;0.20;;;;;;;;;;5094520;28;20206;-81
2023/08/15 19:31:46;;;;;;;0.10;0.10;;;;;;;;;;5094641;28;20129;-81
2023/08/15 19:34:15;;;;;;;0.00;0.00;;;;;;;;;;5094467;28;20024;-82
2023/08/15 19:36:41;;;;;;;0.00;0.00;;;;;;;;;;5094364;28;20382;-81
2023/08/15 19:39:09;;;;;;;0.08;0.08;;;;;;;;;;5094008;28;20047;-82
2023/08/15 19:41:35;;;;;;;0.38;0.38;;;;;;;;;;5094325;28;20020;-81
2023/08/15 19:44:02;;;;;;;0.13;0.13;;;;;;;;;;5094368;28;20032;-81
2023/08/15 19:46:28;;;;;;;0.17;0.17;;;;;;;;;;5094153;28;20500;-81
2023/08/15 19:48:54;;;;;;;1.70;0.82;;;;;;;;;;5094210;28;20073;-81
2023/08/15 19:51:20;;;;;;;0.00;0.00;;;;;;;;;;5094182;28;20031;-81
2023/08/15 19:53:46;;;;;;;0.00;0.00;;;;;;;;;;5093746;28;20048;-81
2023/08/15 19:56:12;;;;;;;0.00;0.00;;;;;;;;;;5094133;28;20063;-81
2023/08/15 19:58:38;;;;;;;0.35;0.35;;;;;;;;;;5093968;28;20028;-82
2023/08/15 20:01:04;;;;;;;0.10;0.05;;;;;;;;;;5093977;28;20040;-81
2023/08/15 20:03:30;;;;;;;0.00;0.00;;;;;;;;;;5093170;28;20099;-82
2023/08/15 20:05:56;;;;;;;0.00;0.00;;;;;;;;;;5093758;28;20024;-82
2023/08/15 20:08:23;;;;;;;0.00;0.00;;;;;;;;;;5093507;28;20035;-82
2023/08/15 20:10:52;;;;;;;0.00;0.00;;;;;;;;;;5093785;28;20031;-82
2023/08/15 20:13:20;;;;;;;0.00;0.00;;;;;;;;;;5093777;28;20028;-81
2023/08/15 20:15:46;;;;;;;0.00;0.00;;;;;;;;;;5093775;28;20380;-81
2023/08/15 20:18:13;;;;;;;0.00;0.00;;;;;;;;;;5093383;28;20447;-82
2023/08/15 20:20:39;;;;;;;0.00;0.00;;;;;;;;;;5093699;28;20032;-81
2023/08/15 20:23:06;;;;;;;0.00;0.00;;;;;;;;;;5093172;28;20051;-81
2023/08/15 20:25:32;;;;;;;0.00;0.00;;;;;;;;;;5093318;28;20477;-81
2023/08/15 20:27:58;;;;;;;0.20;0.20;;;;;;;;;;5093402;28;20078;-81
2023/08/15 20:30:24;;;;;;;0.00;0.00;;;;;;;;;;5093479;28;20036;-81
2023/08/15 20:32:50;;;;;;;0.17;0.17;;;;;;;;;;5093350;28;20020;-82
2023/08/15 20:35:16;;;;;;;0.00;0.00;;;;;;;;;;5093297;28;20377;-81
2023/08/15 20:37:42;;;;;;;0.00;0.00;;;;;;;;;;5092913;28;20058;-81
2023/08/15 20:40:09;;;;;;;0.08;0.08;;;;;;;;;;5093180;28;20036;-81
2023/08/15 20:42:35;;;;;;;0.20;0.20;;;;;;;;;;5093242;28;20106;-81
2023/08/15 20:45:01;;;;;;;0.10;0.10;;;;;;;;;;5093180;28;20028;-81
2023/08/15 20:47:27;;;;;;;0.10;0.10;;;;;;;;;;5093155;28;20020;-81
2023/08/15 20:49:53;;;;;;;0.05;0.05;;;;;;;;;;5093081;28;20084;-81
2023/08/15 20:52:19;;;;;;;0.30;0.20;;;;;;;;;;5092708;28;20024;-82
2023/08/15 20:54:45;;;;;;;0.03;0.03;;;;;;;;;;5093024;28;20043;-82
2023/08/15 20:57:12;;;;;;;0.15;0.15;;;;;;;;;;5092869;28;20028;-81
2023/08/15 20:59:38;;;;;;;0.10;0.10;;;;;;;;;;5092895;28;20107;-82
2023/08/15 21:02:05;;;;;;;0.28;0.28;;;;;;;;;;5092890;28;20020;-82
2023/08/15 21:04:31;;;;;;;0.20;0.20;;;;;;;;;;5092754;28;20040;-82
2023/08/15 21:06:57;;;;;;;0.28;0.28;;;;;;;;;;5092574;28;20385;-82
2023/08/15 21:09:25;;;;;;;0.00;0.00;;;;;;;;;;5074967;28;20498;-81
2023/08/15 21:11:51;;;;;;;0.10;0.10;;;;;;;;;;5092761;28;20419;-81
2023/08/15 21:14:17;;;;;;;0.20;0.20;;;;;;;;;;5092615;28;20028;-81
2023/08/15 21:16:43;;;;;;;0.25;0.25;;;;;;;;;;5092761;28;20024;-82
2023/08/15 21:19:09;;;;;;;0.10;0.10;;;;;;;;;;5092436;28;20519;-81
2023/08/15 21:21:35;;;;;;;0.30;0.30;;;;;;;;;;5092412;28;20157;-81
2023/08/15 21:24:01;;;;;;;0.03;0.03;;;;;;;;;;5092477;28;20122;-82
2023/08/15 21:26:27;;;;;;;0.10;0.10;;;;;;;;;;5092677;28;20024;-81
2023/08/15 21:28:53;;;;;;;0.00;0.00;;;;;;;;;;5092647;28;20032;-81
2023/08/15 21:31:19;;;;;;;0.20;0.20;;;;;;;;;;5092751;28;20054;-81
2023/08/15 21:33:45;;;;;;;0.00;0.00;;;;;;;;;;5092551;28;20030;-81
2023/08/15 21:36:11;;;;;;;0.20;0.20;;;;;;;;;;5092292;28;20082;-81
2023/08/15 21:38:37;;;;;;;0.65;0.32;;;;;;;;;;5092549;28;20497;-82
2023/08/15 21:41:03;;;;;;;0.00;0.00;;;;;;;;;;5092557;28;20039;-81
2023/08/15 21:43:29;;;;;;;0.30;0.28;;;;;;;;;;5092571;28;20061;-81
2023/08/15 21:45:55;;;;;;;0.03;0.03;;;;;;;;;;5092498;28;20506;-81
2023/08/15 21:48:21;;;;;;;0.40;0.40;;;;;;;;;;5092353;28;20049;-81
2023/08/15 21:50:47;;;;;;;0.10;0.10;;;;;;;;;;5092170;28;20040;-81
2023/08/15 21:53:13;;;;;;;0.00;0.00;;;;;;;;;;5092321;28;20028;-81
2023/08/15 21:55:39;;;;;;;0.10;0.10;;;;;;;;;;5092530;28;20085;-81
2023/08/15 21:58:05;;;;;;;0.20;0.20;;;;;;;;;;5092450;28;20028;-82
2023/08/15 22:00:31;;;;;;;0.00;0.00;;;;;;;;;;5092237;28;20496;-82
2023/08/15 22:02:57;;;;;;;0.13;0.10;;;;;;;;;;5092316;28;20024;-82
2023/08/15 22:05:24;;;;;;;0.10;0.10;;;;;;;;;;5091883;28;20039;-82
2023/08/15 22:07:51;;;;;;;0.00;0.00;;;;;;;;;;5092093;28;20389;-81
2023/08/15 22:10:18;;;;;;;0.00;0.00;;;;;;;;;;5092265;28;20020;-76
2023/08/15 22:12:44;;;;;;;0.00;0.00;;;;;;;;;;5092000;28;20533;-77
2023/08/15 22:15:10;;;;;;;0.00;0.00;;;;;;;;;;5092144;28;20024;-77
2023/08/15 22:17:36;;;;;;;0.30;0.25;;;;;;;;;;5092213;28;20036;-77
2023/08/15 22:20:02;;;;;;;0.28;0.28;;;;;;;;;;5091361;28;20048;-77
2023/08/15 22:22:28;;;;;;;1.25;0.57;;;;;;;;;;5091965;28;20032;-77
2023/08/15 22:24:54;;;;;;;0.10;0.10;;;;;;;;;;5091819;28;20048;-76
2023/08/15 22:27:21;;;;;;;0.10;0.10;;;;;;;;;;5094563;28;20500;-76
2023/08/15 22:29:47;;;;;;;0.00;0.00;;;;;;;;;;5095794;28;20103;-77
2023/08/15 22:32:13;;;;;;;0.22;0.22;;;;;;;;;;5095547;28;20060;-77
2023/08/15 22:34:39;;;;;;;0.22;0.22;;;;;;;;;;5095429;28;20031;-77
2023/08/15 22:37:04;;;;;;;0.15;0.15;;;;;;;;;;5095377;28;20024;-77